createdAt,value
2023-01-27T00:00:14.469Z,54.67
2023-01-27T00:05:11.697Z,54.57
2023-01-27T00:10:06.229Z,54.63
2023-01-27T00:14:58.899Z,54.59
2023-01-27T00:19:52.150Z,54.60
2023-01-27T00:24:45.705Z,54.71
2023-01-27T00:29:40.273Z,54.51
2023-01-27T00:34:33.418Z,54.65
2023-01-27T00:39:27.281Z,54.58
2023-01-27T00:44:20.299Z,54.50
2023-01-27T00:49:13.591Z,54.43
2023-01-27T00:54:06.768Z,54.53
2023-01-27T00:58:59.719Z,54.53
2023-01-27T01:03:52.702Z,54.57
2023-01-27T01:08:46.049Z,54.60
2023-01-27T01:13:39.161Z,54.68
2023-01-27T01:18:33.793Z,54.80
2023-01-27T01:23:27.264Z,54.76
2023-01-27T01:28:21.223Z,54.83
2023-01-27T01:33:14.423Z,54.67
2023-01-27T01:38:07.028Z,54.71
2023-01-27T01:43:05.262Z,54.85
2023-01-27T01:48:03.082Z,54.69
2023-01-27T01:52:56.275Z,54.73
2023-01-27T01:57:51.099Z,54.69
2023-01-27T02:02:49.387Z,54.71
2023-01-27T02:07:57.639Z,54.67
2023-01-27T02:12:50.174Z,54.59
2023-01-27T02:17:43.048Z,54.92
2023-01-27T02:22:44.679Z,54.60
2023-01-27T02:27:38.154Z,54.46
2023-01-27T02:32:31.002Z,54.61
2023-01-27T02:37:25.002Z,54.53
2023-01-27T02:42:20.162Z,54.50
2023-01-27T02:47:13.005Z,54.38
2023-01-27T02:52:06.382Z,54.21
2023-01-27T02:57:00.267Z,54.33
2023-01-27T03:01:55.320Z,54.09
2023-01-27T03:06:49.123Z,54.15
2023-01-27T03:12:00.093Z,54.10
2023-01-27T03:17:11.540Z,53.88
2023-01-27T03:22:04.740Z,53.77
2023-01-27T03:27:00.940Z,53.65
2023-01-27T03:32:12.261Z,53.48
2023-01-27T03:37:33.328Z,53.53
2023-01-27T03:42:46.232Z,53.23
2023-01-27T03:47:39.059Z,53.25
2023-01-27T03:52:32.331Z,52.90
2023-01-27T03:57:24.464Z,53.13
2023-01-27T04:02:36.605Z,52.80
2023-01-27T04:07:29.115Z,52.99
2023-01-27T04:12:21.992Z,52.78
2023-01-27T04:17:20.298Z,52.54
2023-01-27T04:22:13.666Z,52.48
2023-01-27T04:27:10.125Z,52.54
2023-01-27T04:32:04.851Z,52.46
2023-01-27T04:36:57.740Z,52.50
2023-01-27T04:41:50.553Z,52.31
2023-01-27T04:46:43.717Z,52.35
2023-01-27T04:51:37.226Z,52.24
2023-01-27T04:56:37.961Z,52.22
2023-01-27T05:01:31.558Z,52.12
2023-01-27T05:06:26.826Z,52.14
2023-01-27T05:11:20.031Z,52.21
2023-01-27T05:16:13.739Z,52.18
2023-01-27T05:21:08.044Z,52.21
2023-01-27T05:26:07.078Z,52.22
2023-01-27T05:31:05.115Z,52.28
2023-01-27T05:36:03.394Z,52.21
2023-01-27T05:41:17.759Z,51.92
2023-01-27T05:46:14.979Z,51.82
2023-01-27T05:51:08.858Z,51.68
2023-01-27T05:56:02.483Z,51.63
2023-01-27T06:00:56.654Z,51.83
2023-01-27T06:05:55.914Z,51.75
2023-01-27T06:10:48.743Z,51.54
2023-01-27T06:15:42.804Z,51.45
2023-01-27T06:20:35.970Z,51.56
2023-01-27T06:25:30.036Z,51.37
2023-01-27T06:30:23.386Z,51.56
2023-01-27T06:35:17.203Z,51.53
2023-01-27T06:40:11.672Z,51.39
2023-01-27T06:45:08.215Z,51.40
2023-01-27T06:50:01.431Z,51.44
2023-01-27T06:54:54.924Z,51.29
2023-01-27T06:59:48.332Z,51.08
2023-01-27T07:04:41.708Z,51.17
2023-01-27T07:09:50.597Z,51.18
2023-01-27T07:14:45.635Z,50.92
2023-01-27T07:19:38.711Z,50.87
2023-01-27T07:24:32.540Z,50.93
2023-01-27T07:29:25.084Z,51.00
2023-01-27T07:34:18.083Z,50.90
2023-01-27T07:39:11.492Z,50.76
2023-01-27T07:44:04.125Z,50.86
2023-01-27T07:49:00.059Z,50.63
2023-01-27T07:53:53.530Z,50.72
2023-01-27T07:58:46.368Z,50.58
2023-01-27T08:03:40.112Z,50.46
2023-01-27T08:08:33.597Z,50.40
2023-01-27T08:13:27.753Z,50.32
2023-01-27T08:18:20.637Z,50.38
2023-01-27T08:23:13.483Z,50.25
2023-01-27T08:28:06.897Z,50.19
2023-01-27T08:33:00.113Z,50.11
2023-01-27T08:37:53.640Z,50.11
2023-01-27T08:42:47.543Z,50.03
2023-01-27T08:47:40.855Z,50.14
2023-01-27T08:52:34.976Z,50.06
2023-01-27T08:57:28.290Z,50.01
2023-01-27T09:02:22.918Z,49.98
2023-01-27T09:07:16.403Z,39.79
2023-01-27T09:12:09.207Z,38.46
2023-01-27T09:17:01.598Z,35.49
2023-01-27T09:21:54.524Z,33.37
2023-01-27T09:26:48.050Z,32.72
2023-01-27T09:31:41.205Z,32.74
2023-01-27T09:36:41.187Z,31.73
2023-01-27T09:41:52.623Z,31.88
2023-01-27T09:47:07.571Z,33.26
2023-01-27T09:52:45.403Z,31.67
2023-01-27T09:57:48.244Z,32.31
2023-01-27T10:02:49.525Z,31.67
2023-01-27T10:08:35.359Z,30.96
2023-01-27T10:13:45.617Z,30.75
2023-01-27T10:18:40.594Z,32.33
2023-01-27T10:23:54.087Z,31.55
2023-01-27T10:28:52.704Z,30.53
2023-01-27T10:33:55.108Z,30.22
2023-01-27T10:39:15.462Z,30.10
2023-01-27T10:44:10.892Z,30.43
2023-01-27T10:49:15.792Z,30.76
2023-01-27T10:54:18.251Z,30.29
2023-01-27T10:59:30.595Z,30.20
2023-01-27T11:04:43.607Z,30.92
2023-01-27T11:09:47.902Z,30.83
2023-01-27T11:14:50.156Z,31.12
2023-01-27T11:19:50.097Z,35.43
2023-01-27T11:24:48.297Z,36.58
2023-01-27T11:29:51.974Z,37.28
2023-01-27T11:35:14.266Z,37.69
2023-01-27T11:40:38.475Z,37.72
2023-01-27T11:45:36.191Z,38.48
2023-01-27T11:50:36.589Z,38.45
2023-01-27T11:55:37.670Z,38.66
2023-01-27T12:00:38.920Z,39.01
2023-01-27T12:05:35.191Z,39.48
2023-01-27T12:10:32.066Z,39.19
2023-01-27T12:15:29.015Z,40.56
2023-01-27T12:20:38.848Z,40.97
2023-01-27T12:25:44.956Z,40.94
2023-01-27T12:30:40.020Z,41.20
2023-01-27T12:35:36.376Z,41.44
2023-01-27T12:40:29.878Z,41.10
2023-01-27T12:45:27.125Z,41.48
2023-01-27T12:50:22.925Z,41.79
2023-01-27T12:55:37.428Z,42.09
2023-01-27T13:00:30.505Z,42.22
2023-01-27T13:05:23.983Z,41.81
2023-01-27T13:10:21.367Z,41.95
2023-01-27T13:15:43.872Z,42.01
2023-01-27T13:20:52.049Z,42.39
2023-01-27T13:26:05.989Z,42.55
2023-01-27T13:31:06.786Z,42.23
2023-01-27T13:36:07.456Z,42.78
2023-01-27T13:41:06.732Z,42.64
2023-01-27T13:46:16.245Z,42.60
2023-01-27T13:51:25.407Z,42.59
2023-01-27T13:56:46.122Z,42.75
2023-01-27T14:01:41.908Z,42.91
2023-01-27T14:07:02.518Z,42.85
2023-01-27T14:12:34.150Z,42.88
2023-01-27T14:17:50.398Z,42.76
2023-01-27T14:22:57.126Z,42.58
2023-01-27T14:28:21.131Z,42.59
2023-01-27T14:33:47.170Z,43.16
2023-01-27T14:38:52.475Z,43.12
2023-01-27T14:44:06.064Z,43.05
2023-01-27T14:49:31.900Z,43.08
2023-01-27T14:55:02.854Z,43.17
2023-01-27T15:00:20.789Z,43.12
2023-01-27T15:05:44.113Z,42.87
2023-01-27T15:10:45.960Z,42.73
2023-01-27T15:15:57.767Z,42.97
2023-01-27T15:21:08.765Z,43.19
2023-01-27T15:26:24.084Z,43.17
2023-01-27T15:31:17.025Z,43.14
2023-01-27T15:36:38.802Z,42.84
2023-01-27T15:41:50.912Z,42.99
2023-01-27T15:46:49.504Z,43.18
2023-01-27T15:51:51.323Z,43.28
2023-01-27T15:56:44.119Z,43.17
2023-01-27T16:01:36.843Z,42.55
2023-01-27T16:06:49.329Z,42.89
2023-01-27T16:11:43.920Z,42.75
2023-01-27T16:16:37.360Z,42.89
2023-01-27T16:21:51.760Z,42.90
2023-01-27T16:27:00.707Z,42.81
2023-01-27T16:31:59.021Z,42.91
2023-01-27T16:37:02.933Z,43.33
2023-01-27T16:41:58.719Z,43.48
2023-01-27T16:47:19.587Z,43.26
2023-01-27T16:52:24.714Z,43.35
2023-01-27T16:57:55.107Z,43.06
2023-01-27T17:02:50.587Z,43.20
2023-01-27T17:08:17.901Z,43.24
2023-01-27T17:13:30.813Z,43.22
2023-01-27T17:18:25.523Z,42.79
2023-01-27T17:23:30.752Z,43.24
2023-01-27T17:28:46.208Z,43.00
2023-01-27T17:33:39.108Z,43.16
2023-01-27T17:38:47.823Z,43.01
2023-01-27T17:43:41.190Z,43.11
2023-01-27T17:48:36.116Z,42.68
2023-01-27T17:53:30.209Z,42.87
2023-01-27T17:58:26.237Z,43.00
2023-01-27T18:03:36.410Z,44.57
2023-01-27T18:08:35.445Z,44.72
2023-01-27T18:13:28.068Z,44.67
2023-01-27T18:18:27.031Z,44.52
2023-01-27T18:23:27.253Z,44.54
2023-01-27T18:28:21.296Z,44.70
2023-01-27T18:33:15.248Z,44.60
2023-01-27T18:38:23.084Z,44.77
2023-01-27T18:43:16.149Z,44.71
2023-01-27T18:48:16.183Z,44.99
2023-01-27T18:53:17.005Z,44.71
2023-01-27T18:58:13.194Z,44.76
2023-01-27T19:03:12.947Z,44.92
2023-01-27T19:08:07.189Z,44.75
2023-01-27T19:13:02.988Z,44.79
2023-01-27T19:17:57.959Z,45.00
2023-01-27T19:22:52.143Z,44.68
2023-01-27T19:27:51.627Z,44.83
2023-01-27T19:32:45.429Z,44.68
2023-01-27T19:37:39.131Z,45.14
2023-01-27T19:42:32.912Z,45.45
2023-01-27T19:47:26.034Z,45.03
2023-01-27T19:52:18.997Z,45.12
2023-01-27T19:57:16.584Z,45.45
2023-01-27T20:02:13.916Z,33.96
2023-01-27T20:07:06.580Z,32.46
2023-01-27T20:12:00.388Z,29.55
2023-01-27T20:16:53.987Z,36.33
2023-01-27T20:21:47.528Z,38.32
2023-01-27T20:26:40.816Z,39.25
2023-01-27T20:31:34.259Z,39.88
2023-01-27T20:36:28.033Z,40.27
2023-01-27T20:41:23.098Z,40.40
2023-01-27T20:46:18.436Z,40.82
2023-01-27T20:51:13.903Z,40.98
2023-01-27T20:56:08.143Z,41.26
2023-01-27T21:01:08.844Z,41.48
2023-01-27T21:06:01.784Z,41.98
2023-01-27T21:10:55.508Z,42.00
2023-01-27T21:15:52.064Z,42.05
2023-01-27T21:20:51.629Z,42.31
2023-01-27T21:25:46.897Z,42.60
2023-01-27T21:30:41.980Z,42.86
2023-01-27T21:35:34.478Z,42.94
2023-01-27T21:40:32.819Z,43.01
2023-01-27T21:45:26.466Z,43.09
2023-01-27T21:50:19.889Z,43.30
2023-01-27T21:55:25.036Z,43.51
2023-01-27T22:00:27.194Z,43.44
2023-01-27T22:05:20.635Z,44.40
2023-01-27T22:10:16.570Z,45.15
2023-01-27T22:15:10.549Z,45.83
2023-01-27T22:20:04.920Z,46.24
2023-01-27T22:24:58.291Z,46.68
2023-01-27T22:29:52.479Z,46.82
2023-01-27T22:34:45.845Z,47.25
2023-01-27T22:39:42.843Z,47.29
2023-01-27T22:44:35.657Z,47.92
2023-01-27T22:49:29.050Z,47.96
2023-01-27T22:54:21.447Z,48.23
2023-01-27T22:59:15.063Z,48.15
2023-01-27T23:04:07.221Z,48.41
2023-01-27T23:09:00.689Z,48.64
2023-01-27T23:13:53.315Z,48.53
2023-01-27T23:18:45.822Z,48.69
2023-01-27T23:23:38.772Z,48.94
2023-01-27T23:28:32.241Z,49.14
2023-01-27T23:33:27.644Z,49.27
2023-01-27T23:38:32.047Z,49.33
2023-01-27T23:43:25.943Z,49.23
2023-01-27T23:48:20.613Z,49.35
2023-01-27T23:53:14.416Z,49.48
2023-01-27T23:58:08.251Z,49.20
